sensor_id;sensor_type;location;lat;lon;timestamp;pressure;altitude;pressure_sealevel;temperature;humidity
67109;BME280;54027;50.786;7.058;2023-04-01T00:00:52;99017.19;;;11.70;71.08
67109;BME280;54027;50.786;7.058;2023-04-01T00:03:18;99017.16;;;11.72;70.56
67109;BME280;54027;50.786;7.058;2023-04-01T00:05:45;99017.16;;;11.72;70.37
67109;BME280;54027;50.786;7.058;2023-04-01T00:08:11;99014.47;;;11.73;70.29
67109;BME280;54027;50.786;7.058;2023-04-01T00:10:36;99012.88;;;11.71;70.38
67109;BME280;54027;50.786;7.058;2023-04-01T00:13:01;99011.00;;;11.74;70.65
67109;BME280;54027;50.786;7.058;2023-04-01T00:15:27;99023.09;;;11.74;71.12
67109;BME280;54027;50.786;7.058;2023-04-01T00:17:52;99014.47;;;11.73;71.05
67109;BME280;54027;50.786;7.058;2023-04-01T00:20:18;99022.25;;;11.73;71.18
67109;BME280;54027;50.786;7.058;2023-04-01T00:22:43;99029.13;;;11.74;70.96
67109;BME280;54027;50.786;7.058;2023-04-01T00:25:09;99014.56;;;11.72;70.94
67109;BME280;54027;50.786;7.058;2023-04-01T00:27:34;99016.34;;;11.70;70.95
67109;BME280;54027;50.786;7.058;2023-04-01T00:30:00;99016.34;;;11.70;70.99
67109;BME280;54027;50.786;7.058;2023-04-01T00:32:26;99017.31;;;11.67;71.40
67109;BME280;54027;50.786;7.058;2023-04-01T00:34:52;99005.22;;;11.68;71.49
67109;BME280;54027;50.786;7.058;2023-04-01T00:37:18;99014.72;;;11.67;71.76
67109;BME280;54027;50.786;7.058;2023-04-01T00:39:44;99007.81;;;11.68;71.35
67109;BME280;54027;50.786;7.058;2023-04-01T00:42:10;99013.84;;;11.68;71.28
67109;BME280;54027;50.786;7.058;2023-04-01T00:44:37;99019.84;;;11.69;71.40
67109;BME280;54027;50.786;7.058;2023-04-01T00:47:02;99023.38;;;11.66;71.74
67109;BME280;54027;50.786;7.058;2023-04-01T00:49:42;99030.38;;;11.64;72.15
67109;BME280;54027;50.786;7.058;2023-04-01T00:52:12;99019.13;;;11.65;71.44
67109;BME280;54027;50.786;7.058;2023-04-01T00:54:40;99019.19;;;11.64;71.89
67109;BME280;54027;50.786;7.058;2023-04-01T00:57:14;99016.72;;;11.61;72.23
67109;BME280;54027;50.786;7.058;2023-04-01T00:59:43;99015.06;;;11.60;72.09
67109;BME280;54027;50.786;7.058;2023-04-01T01:02:11;99002.97;;;11.60;71.86
67109;BME280;54027;50.786;7.058;2023-04-01T01:04:37;99007.28;;;11.60;72.04
67109;BME280;54027;50.786;7.058;2023-04-01T01:10:24;99000.38;;;11.60;71.38
67109;BME280;54027;50.786;7.058;2023-04-01T01:13:15;99008.94;;;11.61;71.58
67109;BME280;54027;50.786;7.058;2023-04-01T01:16:06;99007.16;;;11.63;71.41
67109;BME280;54027;50.786;7.058;2023-04-01T01:18:58;99008.00;;;11.63;71.71
67109;BME280;54027;50.786;7.058;2023-04-01T01:21:45;98999.41;;;11.63;71.03
67109;BME280;54027;50.786;7.058;2023-04-01T01:27:07;99000.28;;;11.62;71.57
67109;BME280;54027;50.786;7.058;2023-04-01T01:29:44;99002.03;;;11.61;71.81
67109;BME280;54027;50.786;7.058;2023-04-01T01:35:24;98996.84;;;11.61;71.26
67109;BME280;54027;50.786;7.058;2023-04-01T01:38:07;98994.16;;;11.64;71.12
67109;BME280;54027;50.786;7.058;2023-04-01T01:40:35;98992.53;;;11.62;71.12
67109;BME280;54027;50.786;7.058;2023-04-01T01:43:09;98995.97;;;11.62;71.20
67109;BME280;54027;50.786;7.058;2023-04-01T01:45:37;98988.31;;;11.59;70.80
67109;BME280;54027;50.786;7.058;2023-04-01T01:48:06;98989.09;;;11.61;71.17
67109;BME280;54027;50.786;7.058;2023-04-01T01:50:34;99004.69;;;11.60;71.35
67109;BME280;54027;50.786;7.058;2023-04-01T01:53:10;98990.19;;;11.56;71.20
67109;BME280;54027;50.786;7.058;2023-04-01T01:55:39;98984.03;;;11.58;70.91
67109;BME280;54027;50.786;7.058;2023-04-01T01:58:30;98991.75;;;11.60;70.82
67109;BME280;54027;50.786;7.058;2023-04-01T02:00:59;98984.91;;;11.59;70.49
67109;BME280;54027;50.786;7.058;2023-04-01T02:03:29;98993.56;;;11.58;70.53
67109;BME280;54027;50.786;7.058;2023-04-01T02:05:57;98991.03;;;11.56;70.62
67109;BME280;54027;50.786;7.058;2023-04-01T02:11:18;98982.38;;;11.57;70.62
67109;BME280;54027;50.786;7.058;2023-04-01T02:13:54;98975.38;;;11.59;70.45
67109;BME280;54027;50.786;7.058;2023-04-01T02:19:32;98995.44;;;11.54;70.77
67109;BME280;54027;50.786;7.058;2023-04-01T02:22:01;98979.91;;;11.54;70.23
67109;BME280;54027;50.786;7.058;2023-04-01T02:24:30;98988.63;;;11.52;71.12
67109;BME280;54027;50.786;7.058;2023-04-01T02:26:58;98990.50;;;11.48;71.07
67109;BME280;54027;50.786;7.058;2023-04-01T02:29:24;98995.72;;;11.47;71.27
67109;BME280;54027;50.786;7.058;2023-04-01T02:31:51;99001.81;;;11.46;71.92
67109;BME280;54027;50.786;7.058;2023-04-01T02:34:18;99009.66;;;11.43;71.57
67109;BME280;54027;50.786;7.058;2023-04-01T02:36:44;99019.34;;;11.38;72.97
67109;BME280;54027;50.786;7.058;2023-04-01T02:39:10;99015.25;;;11.32;73.19
67109;BME280;54027;50.786;7.058;2023-04-01T02:41:43;99021.56;;;11.25;74.30
67109;BME280;54027;50.786;7.058;2023-04-01T02:44:11;99023.84;;;11.11;75.15
67109;BME280;54027;50.786;7.058;2023-04-01T02:46:37;99021.72;;;10.99;77.83
67109;BME280;54027;50.786;7.058;2023-04-01T02:49:02;99024.72;;;10.88;78.93
67109;BME280;54027;50.786;7.058;2023-04-01T02:51:27;99024.28;;;10.77;79.68
67109;BME280;54027;50.786;7.058;2023-04-01T02:53:53;99032.31;;;10.69;80.03
67109;BME280;54027;50.786;7.058;2023-04-01T02:56:18;99021.34;;;10.63;80.91
67109;BME280;54027;50.786;7.058;2023-04-01T02:58:45;99029.50;;;10.52;81.75
67109;BME280;54027;50.786;7.058;2023-04-01T03:01:10;99020.22;;;10.47;81.56
67109;BME280;54027;50.786;7.058;2023-04-01T03:03:36;99017.78;;;10.42;83.00
67109;BME280;54027;50.786;7.058;2023-04-01T03:06:09;99021.44;;;10.37;83.64
67109;BME280;54027;50.786;7.058;2023-04-01T03:08:35;99015.63;;;10.30;83.74
67109;BME280;54027;50.786;7.058;2023-04-01T03:11:00;99010.66;;;10.26;83.19
67109;BME280;54027;50.786;7.058;2023-04-01T03:13:25;99016.81;;;10.21;85.12
67109;BME280;54027;50.786;7.058;2023-04-01T03:15:51;99011.84;;;10.15;85.66
67109;BME280;54027;50.786;7.058;2023-04-01T03:18:17;99012.88;;;10.11;85.96
67109;BME280;54027;50.786;7.058;2023-04-01T03:20:42;99010.41;;;10.08;85.87
67109;BME280;54027;50.786;7.058;2023-04-01T03:23:08;99008.78;;;10.06;85.90
67109;BME280;54027;50.786;7.058;2023-04-01T03:25:33;99010.44;;;10.07;86.14
67109;BME280;54027;50.786;7.058;2023-04-01T03:27:59;99016.50;;;10.06;85.88
67109;BME280;54027;50.786;7.058;2023-04-01T03:30:25;99013.13;;;10.04;86.52
67109;BME280;54027;50.786;7.058;2023-04-01T03:32:51;99009.66;;;10.05;85.58
67109;BME280;54027;50.786;7.058;2023-04-01T03:35:16;99006.19;;;10.06;85.10
67109;BME280;54027;50.786;7.058;2023-04-01T03:37:42;99006.91;;;10.09;84.72
67109;BME280;54027;50.786;7.058;2023-04-01T03:40:07;99008.69;;;10.07;84.70
67109;BME280;54027;50.786;7.058;2023-04-01T03:42:33;99012.03;;;10.11;84.39
67109;BME280;54027;50.786;7.058;2023-04-01T03:44:58;99016.22;;;10.13;83.50
67109;BME280;54027;50.786;7.058;2023-04-01T03:47:24;99018.81;;;10.13;84.10
67109;BME280;54027;50.786;7.058;2023-04-01T03:49:49;99009.22;;;10.17;83.15
67109;BME280;54027;50.786;7.058;2023-04-01T03:52:15;99010.88;;;10.19;83.14
67109;BME280;54027;50.786;7.058;2023-04-01T03:54:40;99010.91;;;10.18;82.43
67109;BME280;54027;50.786;7.058;2023-04-01T03:57:05;99013.28;;;10.24;81.83
67109;BME280;54027;50.786;7.058;2023-04-01T03:59:31;99019.19;;;10.28;81.77
67109;BME280;54027;50.786;7.058;2023-04-01T04:01:56;99012.25;;;10.30;82.13
67109;BME280;54027;50.786;7.058;2023-04-01T04:04:22;99007.84;;;10.32;81.98
67109;BME280;54027;50.786;7.058;2023-04-01T04:06:47;99018.94;;;10.35;81.56
67109;BME280;54027;50.786;7.058;2023-04-01T04:09:13;99016.16;;;10.40;80.40
67109;BME280;54027;50.786;7.058;2023-04-01T04:11:39;99012.63;;;10.42;79.99
67109;BME280;54027;50.786;7.058;2023-04-01T04:14:04;99022.84;;;10.45;80.08
67109;BME280;54027;50.786;7.058;2023-04-01T04:16:30;99021.06;;;10.47;80.35
67109;BME280;54027;50.786;7.058;2023-04-01T04:18:55;99023.59;;;10.49;80.28
67109;BME280;54027;50.786;7.058;2023-04-01T04:21:21;99020.78;;;10.55;79.72
67109;BME280;54027;50.786;7.058;2023-04-01T04:23:46;99016.41;;;10.57;78.94
67109;BME280;54027;50.786;7.058;2023-04-01T04:26:13;99024.97;;;10.59;78.98
67109;BME280;54027;50.786;7.058;2023-04-01T04:28:39;99015.41;;;10.61;79.75
67109;BME280;54027;50.786;7.058;2023-04-01T04:31:05;99016.19;;;10.63;78.92
67109;BME280;54027;50.786;7.058;2023-04-01T04:33:31;99022.06;;;10.66;78.79
67109;BME280;54027;50.786;7.058;2023-04-01T04:35:58;99017.81;;;10.65;78.71
67109;BME280;54027;50.786;7.058;2023-04-01T04:38:24;99025.56;;;10.65;79.13
67109;BME280;54027;50.786;7.058;2023-04-01T04:40:50;99017.91;;;10.62;79.11
67109;BME280;54027;50.786;7.058;2023-04-01T04:43:16;99024.97;;;10.59;79.09
67109;BME280;54027;50.786;7.058;2023-04-01T04:45:42;99028.50;;;10.56;79.76
67109;BME280;54027;50.786;7.058;2023-04-01T04:48:10;99020.03;;;10.51;80.77
67109;BME280;54027;50.786;7.058;2023-04-01T04:50:36;99036.50;;;10.49;81.49
67109;BME280;54027;50.786;7.058;2023-04-01T04:53:02;99039.31;;;10.43;81.41
67109;BME280;54027;50.786;7.058;2023-04-01T04:55:28;99035.88;;;10.42;81.15
67109;BME280;54027;50.786;7.058;2023-04-01T04:57:53;99044.56;;;10.40;82.49
67109;BME280;54027;50.786;7.058;2023-04-01T05:00:18;99034.41;;;10.35;82.39
67109;BME280;54027;50.786;7.058;2023-04-01T05:02:44;99040.38;;;10.37;82.54
67109;BME280;54027;50.786;7.058;2023-04-01T05:05:09;99042.28;;;10.32;83.23
67109;BME280;54027;50.786;7.058;2023-04-01T05:07:35;99032.94;;;10.28;84.04
67109;BME280;54027;50.786;7.058;2023-04-01T05:10:01;99038.19;;;10.25;83.64
67109;BME280;54027;50.786;7.058;2023-04-01T05:12:26;99039.09;;;10.24;84.86
67109;BME280;54027;50.786;7.058;2023-04-01T05:14:52;99054.66;;;10.22;84.54
67109;BME280;54027;50.786;7.058;2023-04-01T05:17:17;99042.63;;;10.21;84.52
67109;BME280;54027;50.786;7.058;2023-04-01T05:19:42;99052.94;;;10.21;84.78
67109;BME280;54027;50.786;7.058;2023-04-01T05:22:08;99048.81;;;10.17;85.49
67109;BME280;54027;50.786;7.058;2023-04-01T05:24:33;99051.44;;;10.16;85.39
67109;BME280;54027;50.786;7.058;2023-04-01T05:26:59;99055.81;;;10.14;85.67
67109;BME280;54027;50.786;7.058;2023-04-01T05:29:25;99060.91;;;10.15;85.78
67109;BME280;54027;50.786;7.058;2023-04-01T05:31:51;99066.91;;;10.16;86.04
67109;BME280;54027;50.786;7.058;2023-04-01T05:34:17;99072.19;;;10.13;86.75
67109;BME280;54027;50.786;7.058;2023-04-01T05:36:43;99067.03;;;10.13;88.19
67109;BME280;54027;50.786;7.058;2023-04-01T05:39:09;99071.34;;;10.12;87.54
67109;BME280;54027;50.786;7.058;2023-04-01T05:41:35;99071.50;;;10.08;87.93
67109;BME280;54027;50.786;7.058;2023-04-01T05:44:01;99072.44;;;10.05;88.88
67109;BME280;54027;50.786;7.058;2023-04-01T05:46:26;99066.53;;;10.02;88.82
67109;BME280;54027;50.786;7.058;2023-04-01T05:48:52;99069.16;;;10.00;89.80
67109;BME280;54027;50.786;7.058;2023-04-01T05:51:17;99065.69;;;10.01;90.19
67109;BME280;54027;50.786;7.058;2023-04-01T05:53:43;99077.72;;;10.02;90.32
67109;BME280;54027;50.786;7.058;2023-04-01T05:56:08;99080.19;;;10.05;89.61
67109;BME280;54027;50.786;7.058;2023-04-01T05:58:35;99072.34;;;10.08;89.69
67109;BME280;54027;50.786;7.058;2023-04-01T06:01:06;99072.19;;;10.13;88.91
67109;BME280;54027;50.786;7.058;2023-04-01T06:03:32;99080.69;;;10.16;89.07
67109;BME280;54027;50.786;7.058;2023-04-01T06:05:58;99079.69;;;10.20;89.07
67109;BME280;54027;50.786;7.058;2023-04-01T06:08:24;99081.25;;;10.24;88.47
67109;BME280;54027;50.786;7.058;2023-04-01T06:13:22;99082.75;;;10.32;87.62
67109;BME280;54027;50.786;7.058;2023-04-01T06:29:18;99102.81;;;10.48;87.36
67109;BME280;54027;50.786;7.058;2023-04-01T06:32:15;99101.03;;;10.50;87.54
67109;BME280;54027;50.786;7.058;2023-04-01T06:34:53;99106.00;;;10.56;87.29
67109;BME280;54027;50.786;7.058;2023-04-01T06:46:36;99111.56;;;10.92;85.79
67109;BME280;54027;50.786;7.058;2023-04-01T06:51:50;99105.19;;;11.02;85.63
67109;BME280;54027;50.786;7.058;2023-04-01T06:56:58;99114.19;;;11.15;84.38
67109;BME280;54027;50.786;7.058;2023-04-01T06:59:27;99119.13;;;11.21;85.13
67109;BME280;54027;50.786;7.058;2023-04-01T07:01:57;99123.28;;;11.25;84.94
67109;BME280;54027;50.786;7.058;2023-04-01T07:04:51;99119.47;;;11.35;84.65
67109;BME280;54027;50.786;7.058;2023-04-01T07:07:33;99114.09;;;11.40;83.78
67109;BME280;54027;50.786;7.058;2023-04-01T07:10:04;99125.25;;;11.42;83.41
67109;BME280;54027;50.786;7.058;2023-04-01T07:14:58;99129.69;;;11.39;83.81
67109;BME280;54027;50.786;7.058;2023-04-01T07:17:28;99129.38;;;11.48;83.71
67109;BME280;54027;50.786;7.058;2023-04-01T07:20:20;99131.75;;;11.54;83.41
67109;BME280;54027;50.786;7.058;2023-04-01T07:22:52;99122.16;;;11.56;83.68
67109;BME280;54027;50.786;7.058;2023-04-01T07:25:22;99138.47;;;11.58;83.62
67109;BME280;54027;50.786;7.058;2023-04-01T07:27:52;99131.66;;;11.55;83.33
67109;BME280;54027;50.786;7.058;2023-04-01T07:30:21;99145.56;;;11.53;83.36
67109;BME280;54027;50.786;7.058;2023-04-01T07:33:25;99138.00;;;11.48;83.87
67109;BME280;54027;50.786;7.058;2023-04-01T07:36:30;99143.97;;;11.49;84.31
67109;BME280;54027;50.786;7.058;2023-04-01T07:41:51;99156.56;;;11.34;85.35
67109;BME280;54027;50.786;7.058;2023-04-01T07:52:56;99162.03;;;11.27;86.33
67109;BME280;54027;50.786;7.058;2023-04-01T08:00:33;99161.97;;;11.28;85.83
67109;BME280;54027;50.786;7.058;2023-04-01T08:10:57;99178.88;;;11.14;88.38
67109;BME280;54027;50.786;7.058;2023-04-01T08:16:42;99176.94;;;11.20;88.27
67109;BME280;54027;50.786;7.058;2023-04-01T08:22:13;99194.47;;;11.35;87.56
67109;BME280;54027;50.786;7.058;2023-04-01T08:24:45;99191.59;;;11.45;87.89
67109;BME280;54027;50.786;7.058;2023-04-01T08:27:37;99200.88;;;11.50;86.91
67109;BME280;54027;50.786;7.058;2023-04-01T08:30:22;99202.59;;;11.50;86.59
67109;BME280;54027;50.786;7.058;2023-04-01T08:33:00;99203.59;;;11.46;86.07
67109;BME280;54027;50.786;7.058;2023-04-01T08:35:31;99202.81;;;11.44;86.84
67109;BME280;54027;50.786;7.058;2023-04-01T08:38:10;99213.31;;;11.39;85.50
67109;BME280;54027;50.786;7.058;2023-04-01T08:40:54;99208.00;;;11.44;86.01
67109;BME280;54027;50.786;7.058;2023-04-01T08:49:03;99209.94;;;11.37;85.18
67109;BME280;54027;50.786;7.058;2023-04-01T08:55:26;99227.44;;;11.30;86.28
67109;BME280;54027;50.786;7.058;2023-04-01T09:00:34;99230.31;;;11.46;87.05
67109;BME280;54027;50.786;7.058;2023-04-01T09:26:12;99271.44;;;11.29;89.98
67109;BME280;54027;50.786;7.058;2023-04-01T09:42:21;99277.25;;;11.35;88.97
67109;BME280;54027;50.786;7.058;2023-04-01T09:51:02;99272.75;;;11.65;85.08
67109;BME280;54027;50.786;7.058;2023-04-01T09:53:36;99281.41;;;11.87;86.25
67109;BME280;54027;50.786;7.058;2023-04-01T10:04:47;99295.47;;;12.49;82.64
67109;BME280;54027;50.786;7.058;2023-04-01T10:18:56;99304.91;;;12.50;79.68
67109;BME280;54027;50.786;7.058;2023-04-01T10:21:48;99311.75;;;12.52;80.46
67109;BME280;54027;50.786;7.058;2023-04-01T10:55:48;99331.56;;;12.53;78.58
67109;BME280;54027;50.786;7.058;2023-04-01T11:23:38;99357.47;;;12.31;83.12
67109;BME280;54027;50.786;7.058;2023-04-01T11:26:43;99359.22;;;12.31;82.74
67109;BME280;54027;50.786;7.058;2023-04-01T11:32:23;99363.59;;;12.29;82.26
67109;BME280;54027;50.786;7.058;2023-04-01T11:34:57;99370.63;;;12.49;83.36
67109;BME280;54027;50.786;7.058;2023-04-01T11:37:50;99371.13;;;12.58;81.95
67109;BME280;54027;50.786;7.058;2023-04-01T11:40:40;99367.53;;;12.82;82.59
67109;BME280;54027;50.786;7.058;2023-04-01T11:45:57;99375.09;;;13.10;81.22
67109;BME280;54027;50.786;7.058;2023-04-01T11:51:10;99379.25;;;12.92;82.45
67109;BME280;54027;50.786;7.058;2023-04-01T11:54:04;99377.34;;;12.76;82.11
67109;BME280;54027;50.786;7.058;2023-04-01T11:59:30;99392.16;;;12.72;84.04
67109;BME280;54027;50.786;7.058;2023-04-01T12:05:14;99391.38;;;12.92;81.64
67109;BME280;54027;50.786;7.058;2023-04-01T12:10:27;99408.13;;;12.83;82.21
67109;BME280;54027;50.786;7.058;2023-04-01T12:18:59;99406.41;;;12.39;83.39
67109;BME280;54027;50.786;7.058;2023-04-01T12:21:32;99419.47;;;12.36;81.94
67109;BME280;54027;50.786;7.058;2023-04-01T12:37:52;99419.00;;;13.36;77.88
67109;BME280;54027;50.786;7.058;2023-04-01T12:40:48;99417.72;;;13.46;77.39
67109;BME280;54027;50.786;7.058;2023-04-01T12:52:10;99435.38;;;13.38;77.36
67109;BME280;54027;50.786;7.058;2023-04-01T12:57:43;99436.59;;;13.08;76.45
67109;BME280;54027;50.786;7.058;2023-04-01T13:00:39;99437.81;;;12.98;77.31
67109;BME280;54027;50.786;7.058;2023-04-01T13:03:16;99450.34;;;13.10;78.12
67109;BME280;54027;50.786;7.058;2023-04-01T13:16:54;99450.50;;;13.27;77.36
67109;BME280;54027;50.786;7.058;2023-04-01T13:20:26;99459.25;;;13.25;77.39
67109;BME280;54027;50.786;7.058;2023-04-01T13:23:18;99452.59;;;13.39;77.11
67109;BME280;54027;50.786;7.058;2023-04-01T13:33:36;99459.22;;;13.68;75.13
67109;BME280;54027;50.786;7.058;2023-04-01T13:39:02;99446.06;;;13.71;74.23
67109;BME280;54027;50.786;7.058;2023-04-01T13:56:21;99481.75;;;13.46;76.87
67109;BME280;54027;50.786;7.058;2023-04-01T14:07:15;99497.53;;;13.20;76.18
67109;BME280;54027;50.786;7.058;2023-04-01T14:10:04;99489.97;;;13.14;75.50
67109;BME280;54027;50.786;7.058;2023-04-01T14:21:17;99506.63;;;13.08;75.52
67109;BME280;54027;50.786;7.058;2023-04-01T14:29:55;99522.19;;;13.30;75.87
67109;BME280;54027;50.786;7.058;2023-04-01T14:46:08;99527.56;;;12.56;80.59
67109;BME280;54027;50.786;7.058;2023-04-01T14:51:38;99535.13;;;12.62;78.86
67109;BME280;54027;50.786;7.058;2023-04-01T14:54:10;99531.53;;;12.66;78.78
67109;BME280;54027;50.786;7.058;2023-04-01T14:56:48;99536.72;;;12.66;78.13
67109;BME280;54027;50.786;7.058;2023-04-01T15:04:54;99541.28;;;12.82;79.73
67109;BME280;54027;50.786;7.058;2023-04-01T15:18:56;99570.06;;;12.52;79.63
67109;BME280;54027;50.786;7.058;2023-04-01T15:21:57;99565.88;;;12.48;80.97
67109;BME280;54027;50.786;7.058;2023-04-01T15:25:04;99567.94;;;12.38;80.06
67109;BME280;54027;50.786;7.058;2023-04-01T15:32:55;99578.72;;;12.26;81.38
67109;BME280;54027;50.786;7.058;2023-04-01T15:38:11;99593.34;;;12.28;82.66
67109;BME280;54027;50.786;7.058;2023-04-01T15:41:08;99600.38;;;12.25;83.84
67109;BME280;54027;50.786;7.058;2023-04-01T15:43:49;99598.66;;;12.24;84.70
67109;BME280;54027;50.786;7.058;2023-04-01T15:46:26;99600.06;;;12.34;85.55
67109;BME280;54027;50.786;7.058;2023-04-01T15:51:58;99603.00;;;12.23;84.41
67109;BME280;54027;50.786;7.058;2023-04-01T16:00:44;99613.47;;;11.94;85.92
67109;BME280;54027;50.786;7.058;2023-04-01T16:08:37;99623.59;;;12.02;84.87
67109;BME280;54027;50.786;7.058;2023-04-01T16:13:48;99636.13;;;11.87;85.48
67109;BME280;54027;50.786;7.058;2023-04-01T16:16:49;99635.41;;;11.84;86.43
67109;BME280;54027;50.786;7.058;2023-04-01T16:19:56;99644.09;;;11.81;86.03
67109;BME280;54027;50.786;7.058;2023-04-01T16:22:32;99637.16;;;11.82;85.17
67109;BME280;54027;50.786;7.058;2023-04-01T16:25:09;99644.06;;;11.83;85.47
67109;BME280;54027;50.786;7.058;2023-04-01T16:27:49;99646.75;;;11.78;84.09
67109;BME280;54027;50.786;7.058;2023-04-01T16:30:40;99654.41;;;11.83;85.48
67109;BME280;54027;50.786;7.058;2023-04-01T16:36:10;99653.63;;;11.81;84.85
67109;BME280;54027;50.786;7.058;2023-04-01T16:38:49;99652.09;;;11.74;85.49
67109;BME280;54027;50.786;7.058;2023-04-01T16:41:19;99660.00;;;11.69;86.34
67109;BME280;54027;50.786;7.058;2023-04-01T16:43:52;99667.06;;;11.64;87.01
67109;BME280;54027;50.786;7.058;2023-04-01T16:46:28;99668.00;;;11.62;88.09
67109;BME280;54027;50.786;7.058;2023-04-01T16:51:52;99680.44;;;11.49;88.14
67109;BME280;54027;50.786;7.058;2023-04-01T16:54:35;99675.50;;;11.40;88.00
67109;BME280;54027;50.786;7.058;2023-04-01T17:07:46;99703.13;;;11.40;87.63
67109;BME280;54027;50.786;7.058;2023-04-01T17:10:39;99700.44;;;11.43;87.76
67109;BME280;54027;50.786;7.058;2023-04-01T17:16:01;99721.28;;;11.38;88.35
67109;BME280;54027;50.786;7.058;2023-04-01T17:27:16;99731.94;;;11.27;87.29
67109;BME280;54027;50.786;7.058;2023-04-01T17:35:13;99736.47;;;11.19;88.52
67109;BME280;54027;50.786;7.058;2023-04-01T17:40:41;99758.25;;;11.11;88.48
67109;BME280;54027;50.786;7.058;2023-04-01T17:43:24;99752.38;;;11.04;89.36
67109;BME280;54027;50.786;7.058;2023-04-01T17:45:55;99762.06;;;10.98;89.85
67109;BME280;54027;50.786;7.058;2023-04-01T17:53:58;99766.69;;;10.85;90.07
67109;BME280;54027;50.786;7.058;2023-04-01T17:56:45;99772.78;;;10.83;88.96
67109;BME280;54027;50.786;7.058;2023-04-01T18:02:01;99785.81;;;10.78;89.90
67109;BME280;54027;50.786;7.058;2023-04-01T18:22:06;99816.44;;;10.59;90.59
67109;BME280;54027;50.786;7.058;2023-04-01T18:32:23;99836.50;;;10.48;90.12
67109;BME280;54027;50.786;7.058;2023-04-01T18:37:32;99838.28;;;10.45;90.66
67109;BME280;54027;50.786;7.058;2023-04-01T18:45:50;99851.28;;;10.42;90.42
67109;BME280;54027;50.786;7.058;2023-04-01T18:51:11;99858.16;;;10.43;89.78
67109;BME280;54027;50.786;7.058;2023-04-01T18:54:11;99865.97;;;10.40;89.63
67109;BME280;54027;50.786;7.058;2023-04-01T18:56:43;99872.00;;;10.39;90.21
67109;BME280;54027;50.786;7.058;2023-04-01T19:02:03;99878.94;;;10.37;90.63
67109;BME280;54027;50.786;7.058;2023-04-01T19:04:43;99883.25;;;10.36;91.04
67109;BME280;54027;50.786;7.058;2023-04-01T19:07:48;99890.19;;;10.34;91.28
67109;BME280;54027;50.786;7.058;2023-04-01T19:20:57;99903.22;;;10.30;89.81
67109;BME280;54027;50.786;7.058;2023-04-01T19:26:15;99909.28;;;10.29;90.08
67109;BME280;54027;50.786;7.058;2023-04-01T19:37:03;99917.09;;;10.26;90.58
67109;BME280;54027;50.786;7.058;2023-04-01T19:42:39;99911.94;;;10.24;91.28
67109;BME280;54027;50.786;7.058;2023-04-01T19:50:45;99924.03;;;10.23;91.69
67109;BME280;54027;50.786;7.058;2023-04-01T19:59:27;99918.91;;;10.20;93.25
67109;BME280;54027;50.786;7.058;2023-04-01T20:04:29;99937.88;;;10.18;93.70
67109;BME280;54027;50.786;7.058;2023-04-01T20:07:07;99938.78;;;10.17;93.75
67109;BME280;54027;50.786;7.058;2023-04-01T20:12:28;99948.31;;;10.13;93.90
67109;BME280;54027;50.786;7.058;2023-04-01T20:14:58;99954.34;;;10.12;93.80
67109;BME280;54027;50.786;7.058;2023-04-01T20:17:42;99958.66;;;10.12;94.31
67109;BME280;54027;50.786;7.058;2023-04-01T20:23:02;99959.63;;;10.06;93.77
67109;BME280;54027;50.786;7.058;2023-04-01T20:25:51;99963.13;;;10.04;92.86
67109;BME280;54027;50.786;7.058;2023-04-01T20:36:55;99974.41;;;10.00;92.92
67109;BME280;54027;50.786;7.058;2023-04-01T20:45:15;99985.63;;;9.97;92.15
67109;BME280;54027;50.786;7.058;2023-04-01T20:50:27;99983.06;;;9.96;93.12
67109;BME280;54027;50.786;7.058;2023-04-01T20:53:04;99985.66;;;9.94;93.15
67109;BME280;54027;50.786;7.058;2023-04-01T21:01:20;99989.22;;;9.89;93.45
67109;BME280;54027;50.786;7.058;2023-04-01T21:04:37;99986.69;;;9.87;93.69
67109;BME280;54027;50.786;7.058;2023-04-01T21:34:56;100032.47;;;9.76;96.04
67109;BME280;54027;50.786;7.058;2023-04-01T21:37:44;100026.47;;;9.76;95.63
67109;BME280;54027;50.786;7.058;2023-04-01T22:00:07;100046.34;;;9.67;97.14
67109;BME280;54027;50.786;7.058;2023-04-01T22:11:04;100061.78;;;9.71;97.75
67109;BME280;54027;50.786;7.058;2023-04-01T22:16:41;100065.28;;;9.70;97.57
67109;BME280;54027;50.786;7.058;2023-04-01T22:24:33;100067.00;;;9.69;97.59
67109;BME280;54027;50.786;7.058;2023-04-01T22:27:31;100076.44;;;9.70;97.97
67109;BME280;54027;50.786;7.058;2023-04-01T22:32:48;100076.47;;;9.68;98.34
67109;BME280;54027;50.786;7.058;2023-04-01T22:40:34;100075.66;;;9.66;99.32
67109;BME280;54027;50.786;7.058;2023-04-01T22:43:07;100091.09;;;9.68;98.63
67109;BME280;54027;50.786;7.058;2023-04-01T22:48:36;100091.13;;;9.65;98.71
67109;BME280;54027;50.786;7.058;2023-04-01T22:51:22;100092.03;;;9.64;98.65
67109;BME280;54027;50.786;7.058;2023-04-01T22:53:56;100098.06;;;9.63;98.71
67109;BME280;54027;50.786;7.058;2023-04-01T22:56:32;100093.72;;;9.65;99.53
67109;BME280;54027;50.786;7.058;2023-04-01T22:59:06;100097.19;;;9.62;99.30
67109;BME280;54027;50.786;7.058;2023-04-01T23:02:01;100099.81;;;9.61;99.40
67109;BME280;54027;50.786;7.058;2023-04-01T23:04:32;100102.41;;;9.61;99.64
67109;BME280;54027;50.786;7.058;2023-04-01T23:07:05;100108.38;;;9.61;99.40
67109;BME280;54027;50.786;7.058;2023-04-01T23:09:41;100110.13;;;9.61;99.81
67109;BME280;54027;50.786;7.058;2023-04-01T23:12:11;100117.03;;;9.60;99.84
67109;BME280;54027;50.786;7.058;2023-04-01T23:14:58;100106.69;;;9.59;99.58
67109;BME280;54027;50.786;7.058;2023-04-01T23:20:05;100110.13;;;9.59;100.00
67109;BME280;54027;50.786;7.058;2023-04-01T23:22:39;100110.19;;;9.58;100.00
67109;BME280;54027;50.786;7.058;2023-04-01T23:28:14;100120.50;;;9.58;100.00
67109;BME280;54027;50.786;7.058;2023-04-01T23:33:21;100124.75;;;9.59;100.00
67109;BME280;54027;50.786;7.058;2023-04-01T23:38:20;100133.38;;;9.59;100.00
67109;BME280;54027;50.786;7.058;2023-04-01T23:40:52;100138.53;;;9.59;100.00
67109;BME280;54027;50.786;7.058;2023-04-01T23:45:52;100154.88;;;9.60;100.00
67109;BME280;54027;50.786;7.058;2023-04-01T23:48:19;100151.41;;;9.61;100.00